createdAt,value
2018-07-27T00:00:46.464Z,6.83
2018-07-27T00:03:14.568Z,6.23
2018-07-27T00:05:42.585Z,5.37
2018-07-27T00:08:10.653Z,5.20
2018-07-27T00:10:38.720Z,5.87
2018-07-27T00:13:06.753Z,5.70
2018-07-27T00:15:34.789Z,6.37
2018-07-27T00:18:02.878Z,5.97
2018-07-27T00:20:30.937Z,5.63
2018-07-27T00:22:58.969Z,5.73
2018-07-27T00:25:27.082Z,5.57
2018-07-27T00:27:55.209Z,5.67
2018-07-27T00:30:23.245Z,6.53
2018-07-27T00:32:51.324Z,6.43
2018-07-27T00:35:19.494Z,5.87
2018-07-27T00:37:47.545Z,6.70
2018-07-27T00:40:15.687Z,6.07
2018-07-27T00:42:43.743Z,6.70
2018-07-27T00:45:11.757Z,6.33
2018-07-27T00:47:39.797Z,6.33
2018-07-27T00:50:08.096Z,5.97
2018-07-27T00:52:36.297Z,6.50
2018-07-27T00:55:04.399Z,6.00
2018-07-27T00:57:32.441Z,6.33
2018-07-27T01:00:00.443Z,5.83
2018-07-27T01:02:28.449Z,5.83
2018-07-27T01:04:56.436Z,6.20
2018-07-27T01:07:24.419Z,6.27
2018-07-27T01:09:52.397Z,6.20
2018-07-27T01:12:20.468Z,5.97
2018-07-27T01:14:48.570Z,6.80
2018-07-27T01:17:16.675Z,5.83
2018-07-27T01:19:44.730Z,6.33
2018-07-27T01:22:12.913Z,6.47
2018-07-27T01:24:41.021Z,6.90
2018-07-27T01:27:08.987Z,6.03
2018-07-27T01:29:37.052Z,6.30
2018-07-27T01:32:05.208Z,6.50
2018-07-27T01:34:33.331Z,6.33
2018-07-27T01:37:01.326Z,5.93
2018-07-27T01:39:29.368Z,5.97
2018-07-27T01:41:57.380Z,6.23
2018-07-27T01:44:25.365Z,6.10
2018-07-27T01:46:53.426Z,7.40
2018-07-27T01:49:21.397Z,6.03
2018-07-27T01:51:49.450Z,6.50
2018-07-27T01:54:17.576Z,5.73
2018-07-27T01:56:45.814Z,5.90
2018-07-27T01:59:14.389Z,5.57
2018-07-27T02:01:42.520Z,6.20
2018-07-27T02:04:10.504Z,6.87
2018-07-27T02:06:38.630Z,5.57
2018-07-27T02:09:08.494Z,6.97
2018-07-27T02:11:36.473Z,6.57
2018-07-27T02:14:04.506Z,6.13
2018-07-27T02:16:32.526Z,6.63
2018-07-27T02:19:00.592Z,6.03
2018-07-27T02:21:28.589Z,5.97
2018-07-27T02:23:56.615Z,6.33
2018-07-27T02:26:24.636Z,6.20
2018-07-27T02:28:52.659Z,5.60
2018-07-27T02:31:20.749Z,6.13
2018-07-27T02:33:48.901Z,7.23
2018-07-27T02:36:16.944Z,5.67
2018-07-27T02:38:45.150Z,5.63
2018-07-27T02:41:13.246Z,5.77
2018-07-27T02:43:41.281Z,5.80
2018-07-27T02:46:09.337Z,5.30
2018-07-27T02:48:37.389Z,5.97
2018-07-27T02:51:05.376Z,5.23
2018-07-27T02:53:33.502Z,5.57
2018-07-27T02:56:01.596Z,5.80
2018-07-27T02:58:29.584Z,6.17
2018-07-27T03:00:57.642Z,5.77
2018-07-27T03:03:25.797Z,5.17
2018-07-27T03:05:53.966Z,6.13
2018-07-27T03:08:22.058Z,5.60
2018-07-27T03:10:50.252Z,6.50
2018-07-27T03:13:18.251Z,5.83
2018-07-27T03:15:46.424Z,5.60
2018-07-27T03:18:14.530Z,5.00
2018-07-27T03:20:42.619Z,5.50
2018-07-27T03:23:10.638Z,5.07
2018-07-27T03:25:38.669Z,5.60
2018-07-27T03:28:06.882Z,5.50
2018-07-27T03:30:34.968Z,5.57
2018-07-27T03:33:03.094Z,5.13
2018-07-27T03:35:31.383Z,5.20
2018-07-27T03:37:59.531Z,5.67
2018-07-27T03:40:27.818Z,5.07
2018-07-27T03:42:55.950Z,4.13
2018-07-27T03:45:24.144Z,4.97
2018-07-27T03:47:53.096Z,4.37
2018-07-27T03:50:21.160Z,4.50
2018-07-27T03:52:49.241Z,4.77
2018-07-27T03:55:17.427Z,4.53
2018-07-27T03:57:45.889Z,4.63
2018-07-27T04:00:14.077Z,4.37
2018-07-27T04:02:42.557Z,4.63
2018-07-27T04:05:10.726Z,4.20
2018-07-27T04:07:39.220Z,4.77
2018-07-27T04:10:07.648Z,4.60
2018-07-27T04:12:36.057Z,4.13
2018-07-27T04:15:04.391Z,4.60
2018-07-27T04:17:33.236Z,4.73
2018-07-27T04:20:01.522Z,4.73
2018-07-27T04:22:29.778Z,5.07
2018-07-27T04:24:57.876Z,4.30
2018-07-27T04:27:27.278Z,4.60
2018-07-27T04:29:56.318Z,5.73
2018-07-27T04:32:24.479Z,4.80
2018-07-27T04:34:52.592Z,5.07
2018-07-27T04:37:20.769Z,4.77
2018-07-27T04:39:48.919Z,5.40
2018-07-27T04:42:16.995Z,5.20
2018-07-27T04:44:45.069Z,5.50
2018-07-27T04:47:13.160Z,4.60
2018-07-27T04:49:41.322Z,5.27
2018-07-27T04:52:09.651Z,4.60
2018-07-27T04:54:37.688Z,4.60
2018-07-27T04:57:05.880Z,5.37
2018-07-27T04:59:33.981Z,4.43
2018-07-27T05:02:02.103Z,4.73
2018-07-27T05:04:30.221Z,5.47
2018-07-27T05:06:58.377Z,5.47
2018-07-27T05:09:26.448Z,5.10
2018-07-27T05:11:54.771Z,6.40
2018-07-27T05:14:22.916Z,6.20
2018-07-27T05:16:51.037Z,5.80
2018-07-27T05:19:19.241Z,5.17
2018-07-27T05:21:47.419Z,5.20
2018-07-27T05:24:15.588Z,6.17
2018-07-27T05:26:43.861Z,6.50
2018-07-27T05:29:12.170Z,6.33
2018-07-27T05:31:40.454Z,6.53
2018-07-27T05:34:08.966Z,7.43
2018-07-27T05:36:37.305Z,8.47
2018-07-27T05:39:08.578Z,9.50
2018-07-27T05:41:36.839Z,8.70
2018-07-27T05:44:05.332Z,9.87
2018-07-27T05:46:33.539Z,13.97
2018-07-27T05:49:01.846Z,7.70
2018-07-27T05:51:30.093Z,8.33
2018-07-27T05:53:58.708Z,11.40
2018-07-27T05:56:27.282Z,8.53
2018-07-27T05:58:55.921Z,8.67
2018-07-27T06:01:24.128Z,8.57
2018-07-27T06:03:52.504Z,9.13
2018-07-27T06:06:20.759Z,9.27
2018-07-27T06:08:49.004Z,9.67
2018-07-27T06:11:17.310Z,9.73
2018-07-27T06:13:45.515Z,8.70
2018-07-27T06:16:13.930Z,8.10
2018-07-27T06:18:42.060Z,8.30
2018-07-27T06:21:10.769Z,8.13
2018-07-27T06:23:39.279Z,8.53
2018-07-27T06:26:07.591Z,8.83
2018-07-27T06:28:35.874Z,8.47
2018-07-27T06:31:04.164Z,7.23
2018-07-27T06:33:32.476Z,7.33
2018-07-27T06:36:00.973Z,7.73
2018-07-27T06:38:29.339Z,7.70
2018-07-27T06:40:57.660Z,7.70
2018-07-27T06:43:26.064Z,7.23
2018-07-27T06:45:54.388Z,8.37
2018-07-27T06:48:22.672Z,7.40
2018-07-27T06:50:51.590Z,7.73
2018-07-27T06:53:19.958Z,8.07
2018-07-27T06:55:48.148Z,7.63
2018-07-27T06:58:16.612Z,7.10
2018-07-27T07:00:44.877Z,8.17
2018-07-27T07:03:13.142Z,7.13
2018-07-27T07:05:41.347Z,7.30
2018-07-27T07:08:09.465Z,8.20
2018-07-27T07:10:37.658Z,8.37
2018-07-27T07:13:05.904Z,7.40
2018-07-27T07:15:34.265Z,8.23
2018-07-27T07:18:02.497Z,8.57
2018-07-27T07:20:30.731Z,12.47
2018-07-27T07:22:59.044Z,7.53
2018-07-27T07:25:27.466Z,9.63
2018-07-27T07:27:55.622Z,8.47
2018-07-27T07:30:23.660Z,9.30
2018-07-27T07:32:51.940Z,8.03
2018-07-27T07:35:20.135Z,7.30
2018-07-27T07:37:48.446Z,7.50
2018-07-27T07:40:16.697Z,8.00
2018-07-27T07:42:44.898Z,7.83
2018-07-27T07:45:13.191Z,7.90
2018-07-27T07:47:41.399Z,7.87
2018-07-27T07:50:09.740Z,8.07
2018-07-27T07:52:37.836Z,8.80
2018-07-27T07:55:06.310Z,8.40
2018-07-27T07:57:35.055Z,9.47
2018-07-27T08:00:04.613Z,8.50
2018-07-27T08:02:33.006Z,9.37
2018-07-27T08:05:01.216Z,8.60
2018-07-27T08:07:29.779Z,8.20
2018-07-27T08:09:58.065Z,7.90
2018-07-27T08:12:26.352Z,8.30
2018-07-27T08:14:54.898Z,7.37
2018-07-27T08:17:23.465Z,8.00
2018-07-27T08:19:51.674Z,8.10
2018-07-27T08:22:19.891Z,8.53
2018-07-27T08:24:48.325Z,7.63
2018-07-27T08:27:16.451Z,7.63
2018-07-27T08:29:45.746Z,7.90
2018-07-27T08:32:14.317Z,8.60
2018-07-27T08:34:42.841Z,8.30
2018-07-27T08:37:11.206Z,9.23
2018-07-27T08:39:40.727Z,10.80
2018-07-27T08:42:08.998Z,9.90
2018-07-27T08:44:38.623Z,10.37
2018-07-27T08:47:06.900Z,9.57
2018-07-27T08:49:35.165Z,10.80
2018-07-27T08:52:03.528Z,10.97
2018-07-27T08:54:31.970Z,10.57
2018-07-27T08:57:00.468Z,10.57
2018-07-27T08:59:28.776Z,9.90
2018-07-27T09:01:57.113Z,9.80
2018-07-27T09:04:25.375Z,10.10
2018-07-27T09:06:53.544Z,11.07
2018-07-27T09:09:21.845Z,10.97
2018-07-27T09:11:50.355Z,10.90
2018-07-27T09:14:18.829Z,10.47
2018-07-27T09:16:47.114Z,10.07
2018-07-27T09:19:16.075Z,10.17
2018-07-27T09:21:44.454Z,11.03
2018-07-27T09:24:12.833Z,9.77
2018-07-27T09:26:41.040Z,10.30
2018-07-27T09:29:09.247Z,9.93
2018-07-27T09:31:37.746Z,9.37
2018-07-27T09:34:06.062Z,9.10
2018-07-27T09:36:34.277Z,10.75
2018-07-27T09:39:02.867Z,9.67
2018-07-27T09:41:31.182Z,10.20
2018-07-27T09:43:59.784Z,9.83
2018-07-27T09:46:28.186Z,8.78
2018-07-27T09:48:56.725Z,9.78
2018-07-27T09:51:25.397Z,10.03
2018-07-27T09:53:54.174Z,10.40
2018-07-27T09:56:22.612Z,9.90
2018-07-27T09:58:51.674Z,8.83
2018-07-27T10:01:22.854Z,8.93
2018-07-27T10:03:51.739Z,9.83
2018-07-27T10:06:20.275Z,9.28
2018-07-27T10:08:48.982Z,9.40
2018-07-27T10:11:19.531Z,8.35
2018-07-27T10:13:48.387Z,8.65
2018-07-27T10:16:16.771Z,7.67
2018-07-27T10:18:45.292Z,7.78
2018-07-27T10:21:13.667Z,7.78
2018-07-27T10:23:41.894Z,8.03
2018-07-27T10:26:10.124Z,7.92
2018-07-27T10:28:38.417Z,6.90
2018-07-27T10:31:06.837Z,8.28
2018-07-27T10:33:35.053Z,8.45
2018-07-27T10:36:03.681Z,7.78
2018-07-27T10:38:32.151Z,6.92
2018-07-27T10:41:00.550Z,7.42
2018-07-27T10:43:28.951Z,7.33
2018-07-27T10:45:57.206Z,7.45
2018-07-27T10:48:25.634Z,6.55
2018-07-27T10:50:54.787Z,7.05
2018-07-27T10:53:23.067Z,7.45
2018-07-27T10:55:51.779Z,6.22
2018-07-27T10:58:20.168Z,6.17
2018-07-27T11:00:48.460Z,6.70
2018-07-27T11:03:17.157Z,6.10
2018-07-27T11:05:45.380Z,6.10
2018-07-27T11:08:13.804Z,6.22
2018-07-27T11:10:42.062Z,6.33
2018-07-27T11:13:10.365Z,5.80
2018-07-27T11:15:38.643Z,5.42
2018-07-27T11:18:07.011Z,5.22
2018-07-27T11:20:35.206Z,5.72
2018-07-27T11:23:03.363Z,5.80
2018-07-27T11:25:31.814Z,5.55
2018-07-27T11:28:00.159Z,5.50
2018-07-27T11:30:28.546Z,6.00
2018-07-27T11:32:56.881Z,5.58
2018-07-27T11:35:25.168Z,6.10
2018-07-27T11:37:53.452Z,4.95
2018-07-27T11:40:21.683Z,4.80
2018-07-27T11:42:50.152Z,4.35
2018-07-27T11:45:18.612Z,5.03
2018-07-27T11:47:47.088Z,4.25
2018-07-27T11:50:16.181Z,4.03
2018-07-27T11:52:44.446Z,4.08
2018-07-27T11:55:12.974Z,4.33
2018-07-27T11:57:41.340Z,4.30
2018-07-27T12:00:09.532Z,5.37
2018-07-27T12:02:37.824Z,4.55
2018-07-27T12:05:06.071Z,4.35
2018-07-27T12:07:34.500Z,4.87
2018-07-27T12:10:02.851Z,4.25
2018-07-27T12:12:31.180Z,4.37
2018-07-27T12:14:59.970Z,4.25
2018-07-27T12:17:28.176Z,4.33
2018-07-27T12:19:56.475Z,4.45
2018-07-27T12:22:24.720Z,3.98
2018-07-27T12:24:53.136Z,3.67
2018-07-27T12:27:21.261Z,3.62
2018-07-27T12:29:50.189Z,3.90
2018-07-27T12:32:18.502Z,3.75
2018-07-27T12:34:46.740Z,6.47
2018-07-27T12:37:15.060Z,7.50
2018-07-27T12:39:43.433Z,7.20
2018-07-27T12:42:11.854Z,7.60
2018-07-27T12:44:40.006Z,5.37
2018-07-27T12:47:08.258Z,4.90
2018-07-27T12:49:36.745Z,4.20
2018-07-27T12:52:05.051Z,4.78
2018-07-27T12:54:33.199Z,4.10
2018-07-27T12:57:02.190Z,4.92
2018-07-27T12:59:30.945Z,4.37
2018-07-27T13:01:58.981Z,4.07
2018-07-27T13:04:27.132Z,3.30
2018-07-27T13:06:55.698Z,3.27
2018-07-27T13:09:23.980Z,3.10
2018-07-27T13:11:52.143Z,3.40
2018-07-27T13:14:20.526Z,3.20
2018-07-27T13:16:51.180Z,2.67
2018-07-27T13:19:19.856Z,2.10
2018-07-27T13:21:48.298Z,2.33
2018-07-27T13:24:16.562Z,2.50
2018-07-27T13:26:45.051Z,2.10
2018-07-27T13:29:13.283Z,2.77
2018-07-27T13:31:56.230Z,3.13
2018-07-27T13:34:35.474Z,2.53
2018-07-27T13:37:04.033Z,3.00
2018-07-27T13:39:33.048Z,3.10
2018-07-27T13:42:02.385Z,3.40
2018-07-27T13:44:31.870Z,3.53
2018-07-27T13:47:00.503Z,3.43
2018-07-27T13:49:29.061Z,3.50
2018-07-27T13:51:57.962Z,3.37
2018-07-27T13:54:26.926Z,3.00
2018-07-27T13:56:55.442Z,2.90
2018-07-27T13:59:24.088Z,2.93
2018-07-27T14:01:52.473Z,3.60
2018-07-27T14:04:20.730Z,3.27
2018-07-27T14:06:50.386Z,3.33
2018-07-27T14:09:18.694Z,3.50
2018-07-27T14:11:46.940Z,3.60
2018-07-27T14:14:15.220Z,3.70
2018-07-27T14:16:43.575Z,3.50
2018-07-27T14:19:12.620Z,3.35
2018-07-27T14:21:41.023Z,4.00
2018-07-27T14:24:09.176Z,4.07
2018-07-27T14:26:37.378Z,3.90
2018-07-27T14:29:05.840Z,4.37
2018-07-27T14:31:34.088Z,3.80
2018-07-27T14:34:02.349Z,4.50
2018-07-27T14:36:30.552Z,4.95
2018-07-27T14:38:58.777Z,4.27
2018-07-27T14:41:27.518Z,4.47
2018-07-27T14:43:55.956Z,4.37
2018-07-27T14:46:24.162Z,4.57
2018-07-27T14:48:52.912Z,4.33
2018-07-27T14:51:21.571Z,4.50
2018-07-27T14:53:49.819Z,4.60
2018-07-27T14:56:18.107Z,4.47
2018-07-27T14:58:46.344Z,5.00
2018-07-27T15:01:14.449Z,4.00
2018-07-27T15:03:42.590Z,3.97
2018-07-27T15:06:10.696Z,4.13
2018-07-27T15:08:38.802Z,4.30
2018-07-27T15:11:07.666Z,3.90
2018-07-27T15:13:36.222Z,4.30
2018-07-27T15:16:04.811Z,3.97
2018-07-27T15:18:33.012Z,4.03
2018-07-27T15:21:01.243Z,3.83
2018-07-27T15:23:29.287Z,4.87
2018-07-27T15:25:57.414Z,4.03
2018-07-27T15:28:25.539Z,4.50
2018-07-27T15:30:53.760Z,5.27
2018-07-27T15:33:21.936Z,3.97
2018-07-27T15:35:50.258Z,4.70
2018-07-27T15:38:18.394Z,3.97
2018-07-27T15:40:46.745Z,4.30
2018-07-27T15:43:14.995Z,5.00
2018-07-27T15:45:43.187Z,4.60
2018-07-27T15:48:11.444Z,5.00
2018-07-27T15:50:39.706Z,4.80
2018-07-27T15:53:07.797Z,5.03
2018-07-27T15:55:35.924Z,4.63
2018-07-27T15:58:04.268Z,5.10
2018-07-27T16:00:32.360Z,5.37
2018-07-27T16:11:35.576Z,4.67
2018-07-27T16:14:04.273Z,5.53
2018-07-27T16:16:32.356Z,5.50
2018-07-27T16:19:00.548Z,5.17
2018-07-27T16:21:28.773Z,5.80
2018-07-27T16:23:56.880Z,5.20
2018-07-27T16:26:25.062Z,4.83
2018-07-27T16:28:53.156Z,5.27
2018-07-27T16:31:21.585Z,5.70
2018-07-27T16:33:49.884Z,5.77
2018-07-27T16:36:17.966Z,5.23
2018-07-27T16:38:46.027Z,5.20
2018-07-27T16:41:14.394Z,6.33
2018-07-27T16:43:42.727Z,6.30
2018-07-27T16:46:10.932Z,6.00
2018-07-27T16:48:39.165Z,5.83
2018-07-27T16:51:07.269Z,6.37
2018-07-27T16:53:35.346Z,5.90
2018-07-27T16:56:07.248Z,5.43
2018-07-27T16:58:37.134Z,5.67
2018-07-27T17:01:06.636Z,6.60
2018-07-27T17:03:36.209Z,5.97
2018-07-27T17:06:04.779Z,6.17
2018-07-27T17:08:33.129Z,6.40
2018-07-27T17:11:01.254Z,6.37
2018-07-27T17:13:29.508Z,6.50
2018-07-27T17:15:57.642Z,6.50
2018-07-27T17:18:25.927Z,6.87
2018-07-27T17:20:54.198Z,6.43
2018-07-27T17:23:22.528Z,6.07
2018-07-27T17:25:50.892Z,6.47
2018-07-27T17:28:19.022Z,6.87
2018-07-27T17:30:47.334Z,6.43
2018-07-27T17:33:15.593Z,6.30
2018-07-27T17:35:43.815Z,6.97
2018-07-27T17:38:12.032Z,6.63
2018-07-27T17:40:40.519Z,6.60
2018-07-27T17:43:08.876Z,6.77
2018-07-27T17:45:37.018Z,6.17
2018-07-27T17:48:05.180Z,6.50
2018-07-27T17:50:33.503Z,6.20
2018-07-27T17:53:01.833Z,6.07
2018-07-27T17:55:30.127Z,6.70
2018-07-27T17:57:58.490Z,6.97
2018-07-27T18:00:26.720Z,6.07
2018-07-27T18:02:54.880Z,6.40
2018-07-27T18:05:23.422Z,6.10
2018-07-27T18:07:52.029Z,6.20
2018-07-27T18:10:20.348Z,6.07
2018-07-27T18:12:48.568Z,6.30
2018-07-27T18:15:16.864Z,6.40
2018-07-27T18:17:46.144Z,6.10
2018-07-27T18:20:14.915Z,7.10
2018-07-27T18:22:44.240Z,6.43
2018-07-27T18:25:16.291Z,5.87
2018-07-27T18:27:45.433Z,6.30
2018-07-27T18:30:13.877Z,6.10
2018-07-27T18:32:42.217Z,6.37
2018-07-27T18:35:10.511Z,5.93
2018-07-27T18:37:39.532Z,6.03
2018-07-27T18:40:09.176Z,6.40
2018-07-27T18:42:37.437Z,5.90
2018-07-27T18:45:06.733Z,5.83
2018-07-27T18:47:34.943Z,6.17
2018-07-27T18:50:03.231Z,6.37
2018-07-27T18:52:31.502Z,6.97
2018-07-27T18:54:59.778Z,5.43
2018-07-27T18:57:28.127Z,6.03
2018-07-27T18:59:56.525Z,5.83
2018-07-27T19:02:25.071Z,5.87
2018-07-27T19:04:53.517Z,5.60
2018-07-27T19:07:21.869Z,4.97
2018-07-27T19:09:50.315Z,5.37
2018-07-27T19:12:18.611Z,5.03
2018-07-27T19:14:47.010Z,7.20
2018-07-27T19:17:15.393Z,4.73
2018-07-27T19:19:43.668Z,5.53
2018-07-27T19:22:12.123Z,5.13
2018-07-27T19:24:40.730Z,5.20
2018-07-27T19:27:09.323Z,4.57
2018-07-27T19:29:37.738Z,4.03
2018-07-27T19:32:06.336Z,5.17
2018-07-27T19:34:34.741Z,4.60
2018-07-27T19:37:03.031Z,4.20
2018-07-27T19:39:31.298Z,5.00
2018-07-27T19:41:59.485Z,4.53
2018-07-27T19:44:27.747Z,4.57
2018-07-27T19:46:55.900Z,4.37
2018-07-27T19:49:24.541Z,4.93
2018-07-27T19:51:52.931Z,3.93
2018-07-27T19:54:21.076Z,4.30
2018-07-27T19:56:49.189Z,4.70
2018-07-27T19:59:17.285Z,4.07
2018-07-27T20:01:45.516Z,4.20
2018-07-27T20:04:13.738Z,4.80
2018-07-27T20:06:41.912Z,4.10
2018-07-27T20:09:11.131Z,4.27
2018-07-27T20:11:39.679Z,3.80
2018-07-27T20:14:08.050Z,3.67
2018-07-27T20:16:36.186Z,3.60
2018-07-27T20:19:04.359Z,3.40
2018-07-27T20:21:32.707Z,4.00
2018-07-27T20:24:01.016Z,3.80
2018-07-27T20:26:29.408Z,3.93
2018-07-27T20:28:57.597Z,4.23
2018-07-27T20:31:25.798Z,4.03
2018-07-27T20:33:54.155Z,4.53
2018-07-27T20:36:22.398Z,4.43
2018-07-27T20:38:50.575Z,4.57
2018-07-27T20:41:18.939Z,4.63
2018-07-27T20:43:47.061Z,4.40
2018-07-27T20:46:15.670Z,4.77
2018-07-27T20:48:43.889Z,4.80
2018-07-27T20:51:12.706Z,4.80
2018-07-27T20:53:40.919Z,5.10
2018-07-27T20:56:09.084Z,5.10
2018-07-27T20:58:37.194Z,5.67
2018-07-27T21:01:05.318Z,4.90
2018-07-27T21:03:33.480Z,5.43
2018-07-27T21:06:01.645Z,5.23
2018-07-27T21:08:29.787Z,5.20
2018-07-27T21:10:57.955Z,5.33
2018-07-27T21:13:26.458Z,4.97
2018-07-27T21:15:54.788Z,5.43
2018-07-27T21:18:22.949Z,5.20
2018-07-27T21:20:51.148Z,6.23
2018-07-27T21:23:19.243Z,5.50
2018-07-27T21:25:47.362Z,5.73
2018-07-27T21:28:15.548Z,5.70
2018-07-27T21:30:43.633Z,5.77
2018-07-27T21:33:11.642Z,5.47
2018-07-27T21:35:40.993Z,6.00
2018-07-27T21:38:09.834Z,5.80
2018-07-27T21:40:37.983Z,6.20
2018-07-27T21:43:06.119Z,5.90
2018-07-27T21:45:34.200Z,5.73
2018-07-27T21:48:02.320Z,5.67
2018-07-27T21:50:30.411Z,5.77
2018-07-27T21:52:58.500Z,5.83
2018-07-27T21:55:26.557Z,5.67
2018-07-27T21:57:54.840Z,6.03
2018-07-27T22:00:22.952Z,5.03
2018-07-27T22:02:51.056Z,6.30
2018-07-27T22:05:19.177Z,5.63
2018-07-27T22:07:51.710Z,6.23
2018-07-27T22:10:19.826Z,5.10
2018-07-27T22:12:48.040Z,5.37
2018-07-27T22:15:21.254Z,5.40
2018-07-27T22:17:49.704Z,5.33
2018-07-27T22:20:17.755Z,5.33
2018-07-27T22:22:46.227Z,5.20
2018-07-27T22:25:14.216Z,5.43
2018-07-27T22:27:42.556Z,5.03
2018-07-27T22:30:11.560Z,4.87
2018-07-27T22:32:39.651Z,5.47
2018-07-27T22:35:08.063Z,4.70
2018-07-27T22:37:36.929Z,5.50
2018-07-27T22:40:05.664Z,4.90
2018-07-27T22:42:33.817Z,5.07
2018-07-27T22:45:02.038Z,5.73
2018-07-27T22:47:30.467Z,4.80
2018-07-27T22:49:58.543Z,4.83
2018-07-27T22:52:26.818Z,4.80
2018-07-27T22:54:54.887Z,5.10
2018-07-27T22:57:22.923Z,4.87
2018-07-27T22:59:50.952Z,5.67
2018-07-27T23:02:19.110Z,5.23
2018-07-27T23:04:47.173Z,4.70
2018-07-27T23:07:15.314Z,5.33
2018-07-27T23:09:43.429Z,5.30
2018-07-27T23:12:11.520Z,6.03
2018-07-27T23:14:39.644Z,6.77
2018-07-27T23:17:07.758Z,6.67
2018-07-27T23:19:35.911Z,6.33
2018-07-27T23:22:04.127Z,5.93
2018-07-27T23:24:32.217Z,6.30
2018-07-27T23:27:00.357Z,6.70
2018-07-27T23:29:28.476Z,6.77
2018-07-27T23:31:56.488Z,7.20
2018-07-27T23:34:24.579Z,6.73
2018-07-27T23:36:52.760Z,6.47
2018-07-27T23:39:20.826Z,5.90
2018-07-27T23:41:48.860Z,5.63
2018-07-27T23:44:16.915Z,6.03
2018-07-27T23:46:44.933Z,5.20
2018-07-27T23:49:12.966Z,5.53
2018-07-27T23:51:41.080Z,7.23
2018-07-27T23:54:09.175Z,5.77
2018-07-27T23:56:37.223Z,5.40
2018-07-27T23:59:05.457Z,4.53
